sensor_id;sensor_type;location;lat;lon;timestamp;P1;durP1;ratioP1;P2;durP2;ratioP2
54745;SDS011;40640;48.130;11.356;2023-09-30T00:03:55;35.67;;;13.32;;
54745;SDS011;40640;48.130;11.356;2023-09-30T00:07:59;42.28;;;15.02;;
54745;SDS011;40640;48.130;11.356;2023-09-30T00:12:04;44.72;;;14.65;;
54745;SDS011;40640;48.130;11.356;2023-09-30T00:16:07;40.17;;;14.80;;
54745;SDS011;40640;48.130;11.356;2023-09-30T00:20:11;42.13;;;15.68;;
54745;SDS011;40640;48.130;11.356;2023-09-30T00:24:16;47.00;;;14.45;;
54745;SDS011;40640;48.130;11.356;2023-09-30T00:28:20;38.50;;;14.32;;
54745;SDS011;40640;48.130;11.356;2023-09-30T00:32:23;48.88;;;16.30;;
54745;SDS011;40640;48.130;11.356;2023-09-30T00:36:26;42.63;;;15.57;;
54745;SDS011;40640;48.130;11.356;2023-09-30T00:40:29;42.58;;;14.45;;
54745;SDS011;40640;48.130;11.356;2023-09-30T00:44:33;41.70;;;15.30;;
54745;SDS011;40640;48.130;11.356;2023-09-30T00:48:36;46.88;;;15.88;;
54745;SDS011;40640;48.130;11.356;2023-09-30T00:52:40;42.22;;;15.07;;
54745;SDS011;40640;48.130;11.356;2023-09-30T00:56:44;40.55;;;14.70;;
54745;SDS011;40640;48.130;11.356;2023-09-30T01:00:49;44.05;;;14.27;;
54745;SDS011;40640;48.130;11.356;2023-09-30T01:04:53;41.10;;;14.30;;
54745;SDS011;40640;48.130;11.356;2023-09-30T01:08:58;41.60;;;15.18;;
54745;SDS011;40640;48.130;11.356;2023-09-30T01:13:01;42.58;;;15.20;;
54745;SDS011;40640;48.130;11.356;2023-09-30T01:17:06;40.67;;;14.52;;
54745;SDS011;40640;48.130;11.356;2023-09-30T01:21:11;44.42;;;14.75;;
54745;SDS011;40640;48.130;11.356;2023-09-30T01:25:17;40.65;;;14.27;;
54745;SDS011;40640;48.130;11.356;2023-09-30T01:29:20;36.38;;;12.90;;
54745;SDS011;40640;48.130;11.356;2023-09-30T01:33:23;44.60;;;15.48;;
54745;SDS011;40640;48.130;11.356;2023-09-30T01:37:26;43.35;;;13.80;;
54745;SDS011;40640;48.130;11.356;2023-09-30T01:41:31;42.03;;;14.38;;
54745;SDS011;40640;48.130;11.356;2023-09-30T01:45:34;40.65;;;14.13;;
54745;SDS011;40640;48.130;11.356;2023-09-30T01:49:37;37.10;;;13.93;;
54745;SDS011;40640;48.130;11.356;2023-09-30T01:53:40;38.70;;;14.70;;
54745;SDS011;40640;48.130;11.356;2023-09-30T01:57:45;37.05;;;13.38;;
54745;SDS011;40640;48.130;11.356;2023-09-30T02:01:49;42.67;;;14.80;;
54745;SDS011;40640;48.130;11.356;2023-09-30T02:05:52;38.05;;;14.70;;
54745;SDS011;40640;48.130;11.356;2023-09-30T02:09:55;37.95;;;14.07;;
54745;SDS011;40640;48.130;11.356;2023-09-30T02:13:59;40.50;;;14.35;;
54745;SDS011;40640;48.130;11.356;2023-09-30T02:18:03;46.65;;;14.88;;
54745;SDS011;40640;48.130;11.356;2023-09-30T02:22:06;42.88;;;13.57;;
54745;SDS011;40640;48.130;11.356;2023-09-30T02:26:09;41.03;;;14.35;;
54745;SDS011;40640;48.130;11.356;2023-09-30T02:30:13;37.70;;;13.65;;
54745;SDS011;40640;48.130;11.356;2023-09-30T02:34:17;46.17;;;14.53;;
54745;SDS011;40640;48.130;11.356;2023-09-30T02:38:20;34.80;;;13.45;;
54745;SDS011;40640;48.130;11.356;2023-09-30T02:42:24;37.30;;;13.55;;
54745;SDS011;40640;48.130;11.356;2023-09-30T02:46:28;39.35;;;13.27;;
54745;SDS011;40640;48.130;11.356;2023-09-30T02:50:31;43.13;;;14.32;;
54745;SDS011;40640;48.130;11.356;2023-09-30T02:54:34;42.25;;;14.10;;
54745;SDS011;40640;48.130;11.356;2023-09-30T02:58:37;39.03;;;13.98;;
54745;SDS011;40640;48.130;11.356;2023-09-30T03:02:43;40.10;;;13.35;;
54745;SDS011;40640;48.130;11.356;2023-09-30T03:06:46;36.83;;;13.63;;
54745;SDS011;40640;48.130;11.356;2023-09-30T03:10:50;36.58;;;13.45;;
54745;SDS011;40640;48.130;11.356;2023-09-30T03:14:53;35.47;;;13.02;;
54745;SDS011;40640;48.130;11.356;2023-09-30T03:18:58;33.65;;;13.27;;
54745;SDS011;40640;48.130;11.356;2023-09-30T03:23:01;39.10;;;12.82;;
54745;SDS011;40640;48.130;11.356;2023-09-30T03:27:06;40.13;;;13.95;;
54745;SDS011;40640;48.130;11.356;2023-09-30T03:31:09;34.60;;;12.93;;
54745;SDS011;40640;48.130;11.356;2023-09-30T03:35:14;44.78;;;14.35;;
54745;SDS011;40640;48.130;11.356;2023-09-30T03:43:28;39.47;;;12.65;;
54745;SDS011;40640;48.130;11.356;2023-09-30T03:47:31;38.80;;;12.85;;
54745;SDS011;40640;48.130;11.356;2023-09-30T03:51:35;36.33;;;13.10;;
54745;SDS011;40640;48.130;11.356;2023-09-30T03:55:38;35.42;;;12.23;;
54745;SDS011;40640;48.130;11.356;2023-09-30T03:59:42;36.20;;;12.57;;
54745;SDS011;40640;48.130;11.356;2023-09-30T04:03:47;33.03;;;12.25;;
54745;SDS011;40640;48.130;11.356;2023-09-30T04:07:51;32.70;;;11.45;;
54745;SDS011;40640;48.130;11.356;2023-09-30T04:11:54;33.92;;;12.13;;
54745;SDS011;40640;48.130;11.356;2023-09-30T04:15:57;40.33;;;12.65;;
54745;SDS011;40640;48.130;11.356;2023-09-30T04:20:01;30.63;;;11.60;;
54745;SDS011;40640;48.130;11.356;2023-09-30T04:24:05;37.10;;;12.95;;
54745;SDS011;40640;48.130;11.356;2023-09-30T04:28:09;32.55;;;11.45;;
54745;SDS011;40640;48.130;11.356;2023-09-30T04:32:12;36.33;;;11.55;;
54745;SDS011;40640;48.130;11.356;2023-09-30T04:36:15;29.92;;;10.60;;
54745;SDS011;40640;48.130;11.356;2023-09-30T04:40:19;29.10;;;11.45;;
54745;SDS011;40640;48.130;11.356;2023-09-30T04:44:23;27.17;;;10.35;;
54745;SDS011;40640;48.130;11.356;2023-09-30T04:48:29;33.80;;;12.18;;
54745;SDS011;40640;48.130;11.356;2023-09-30T04:52:33;35.17;;;12.00;;
54745;SDS011;40640;48.130;11.356;2023-09-30T04:56:37;35.53;;;11.90;;
54745;SDS011;40640;48.130;11.356;2023-09-30T05:00:41;36.75;;;12.40;;
54745;SDS011;40640;48.130;11.356;2023-09-30T05:04:44;33.00;;;11.05;;
54745;SDS011;40640;48.130;11.356;2023-09-30T05:08:47;28.98;;;10.77;;
54745;SDS011;40640;48.130;11.356;2023-09-30T05:12:52;32.88;;;12.30;;
54745;SDS011;40640;48.130;11.356;2023-09-30T05:16:56;30.67;;;11.80;;
54745;SDS011;40640;48.130;11.356;2023-09-30T05:20:59;30.85;;;11.27;;
54745;SDS011;40640;48.130;11.356;2023-09-30T05:25:02;35.83;;;12.00;;
54745;SDS011;40640;48.130;11.356;2023-09-30T05:29:07;32.60;;;11.23;;
54745;SDS011;40640;48.130;11.356;2023-09-30T05:33:10;34.13;;;10.98;;
54745;SDS011;40640;48.130;11.356;2023-09-30T05:37:15;28.07;;;10.93;;
54745;SDS011;40640;48.130;11.356;2023-09-30T05:41:18;26.15;;;10.55;;
54745;SDS011;40640;48.130;11.356;2023-09-30T05:45:23;30.85;;;11.13;;
54745;SDS011;40640;48.130;11.356;2023-09-30T05:49:28;31.23;;;10.32;;
54745;SDS011;40640;48.130;11.356;2023-09-30T05:53:30;27.38;;;9.77;;
54745;SDS011;40640;48.130;11.356;2023-09-30T05:57:34;30.00;;;10.60;;
54745;SDS011;40640;48.130;11.356;2023-09-30T06:01:39;26.17;;;9.88;;
54745;SDS011;40640;48.130;11.356;2023-09-30T06:05:43;37.10;;;10.75;;
54745;SDS011;40640;48.130;11.356;2023-09-30T06:09:46;29.10;;;10.13;;
54745;SDS011;40640;48.130;11.356;2023-09-30T06:13:49;27.67;;;9.48;;
54745;SDS011;40640;48.130;11.356;2023-09-30T06:17:55;28.13;;;9.75;;
54745;SDS011;40640;48.130;11.356;2023-09-30T06:21:59;28.40;;;9.10;;
54745;SDS011;40640;48.130;11.356;2023-09-30T06:26:05;28.75;;;10.02;;
54745;SDS011;40640;48.130;11.356;2023-09-30T06:30:08;27.20;;;9.70;;
54745;SDS011;40640;48.130;11.356;2023-09-30T06:34:13;26.80;;;9.43;;
54745;SDS011;40640;48.130;11.356;2023-09-30T06:38:16;27.73;;;8.85;;
54745;SDS011;40640;48.130;11.356;2023-09-30T06:42:19;25.40;;;8.60;;
54745;SDS011;40640;48.130;11.356;2023-09-30T06:46:22;27.70;;;9.15;;
54745;SDS011;40640;48.130;11.356;2023-09-30T06:50:27;25.90;;;8.85;;
54745;SDS011;40640;48.130;11.356;2023-09-30T06:54:30;24.83;;;9.05;;
54745;SDS011;40640;48.130;11.356;2023-09-30T06:58:33;20.63;;;8.02;;
54745;SDS011;40640;48.130;11.356;2023-09-30T07:02:37;20.30;;;8.32;;
54745;SDS011;40640;48.130;11.356;2023-09-30T07:06:43;25.90;;;8.43;;
54745;SDS011;40640;48.130;11.356;2023-09-30T07:10:46;19.95;;;8.45;;
54745;SDS011;40640;48.130;11.356;2023-09-30T07:14:50;20.73;;;7.65;;
54745;SDS011;40640;48.130;11.356;2023-09-30T07:18:53;23.08;;;8.40;;
54745;SDS011;40640;48.130;11.356;2023-09-30T07:22:58;22.23;;;7.80;;
54745;SDS011;40640;48.130;11.356;2023-09-30T07:27:19;19.45;;;7.47;;
54745;SDS011;40640;48.130;11.356;2023-09-30T07:31:29;15.00;;;6.88;;
54745;SDS011;40640;48.130;11.356;2023-09-30T07:35:36;16.45;;;6.38;;
54745;SDS011;40640;48.130;11.356;2023-09-30T07:39:42;13.10;;;6.25;;
54745;SDS011;40640;48.130;11.356;2023-09-30T07:43:45;11.88;;;5.53;;
54745;SDS011;40640;48.130;11.356;2023-09-30T07:47:48;18.15;;;6.53;;
54745;SDS011;40640;48.130;11.356;2023-09-30T07:51:52;15.25;;;6.22;;
54745;SDS011;40640;48.130;11.356;2023-09-30T07:55:57;14.02;;;5.43;;
54745;SDS011;40640;48.130;11.356;2023-09-30T08:00:00;14.90;;;6.93;;
54745;SDS011;40640;48.130;11.356;2023-09-30T08:04:09;17.58;;;7.22;;
54745;SDS011;40640;48.130;11.356;2023-09-30T08:08:13;20.73;;;6.97;;
54745;SDS011;40640;48.130;11.356;2023-09-30T08:12:17;15.02;;;6.28;;
54745;SDS011;40640;48.130;11.356;2023-09-30T08:16:20;16.50;;;7.18;;
54745;SDS011;40640;48.130;11.356;2023-09-30T08:20:23;20.23;;;6.03;;
54745;SDS011;40640;48.130;11.356;2023-09-30T08:24:28;14.65;;;6.53;;
54745;SDS011;40640;48.130;11.356;2023-09-30T08:28:32;11.95;;;6.95;;
54745;SDS011;40640;48.130;11.356;2023-09-30T08:32:36;12.30;;;6.32;;
54745;SDS011;40640;48.130;11.356;2023-09-30T08:36:39;13.15;;;6.85;;
54745;SDS011;40640;48.130;11.356;2023-09-30T08:40:43;14.63;;;7.38;;
54745;SDS011;40640;48.130;11.356;2023-09-30T08:44:49;17.83;;;6.57;;
54745;SDS011;40640;48.130;11.356;2023-09-30T08:48:56;17.40;;;6.75;;
54745;SDS011;40640;48.130;11.356;2023-09-30T08:53:01;14.52;;;6.53;;
54745;SDS011;40640;48.130;11.356;2023-09-30T08:57:06;13.43;;;6.15;;
54745;SDS011;40640;48.130;11.356;2023-09-30T09:01:13;13.95;;;6.60;;
54745;SDS011;40640;48.130;11.356;2023-09-30T09:05:18;13.80;;;7.13;;
54745;SDS011;40640;48.130;11.356;2023-09-30T09:09:22;14.40;;;7.10;;
54745;SDS011;40640;48.130;11.356;2023-09-30T09:13:25;13.63;;;6.95;;
54745;SDS011;40640;48.130;11.356;2023-09-30T09:17:42;13.30;;;7.07;;
54745;SDS011;40640;48.130;11.356;2023-09-30T09:21:56;15.45;;;7.22;;
54745;SDS011;40640;48.130;11.356;2023-09-30T09:26:00;16.67;;;7.55;;
54745;SDS011;40640;48.130;11.356;2023-09-30T09:30:16;17.75;;;7.95;;
54745;SDS011;40640;48.130;11.356;2023-09-30T09:34:21;15.40;;;7.22;;
54745;SDS011;40640;48.130;11.356;2023-09-30T09:38:24;21.27;;;7.53;;
54745;SDS011;40640;48.130;11.356;2023-09-30T09:42:27;14.25;;;6.85;;
54745;SDS011;40640;48.130;11.356;2023-09-30T09:46:31;15.77;;;7.25;;
54745;SDS011;40640;48.130;11.356;2023-09-30T09:50:37;14.45;;;7.32;;
54745;SDS011;40640;48.130;11.356;2023-09-30T09:54:40;15.20;;;8.30;;
54745;SDS011;40640;48.130;11.356;2023-09-30T09:58:45;13.13;;;7.28;;
54745;SDS011;40640;48.130;11.356;2023-09-30T10:02:52;12.98;;;7.47;;
54745;SDS011;40640;48.130;11.356;2023-09-30T10:06:57;11.93;;;7.03;;
54745;SDS011;40640;48.130;11.356;2023-09-30T10:11:00;10.77;;;6.55;;
54745;SDS011;40640;48.130;11.356;2023-09-30T10:20:02;12.75;;;6.88;;
54745;SDS011;40640;48.130;11.356;2023-09-30T10:28:34;12.52;;;6.20;;
54745;SDS011;40640;48.130;11.356;2023-09-30T10:37:21;11.80;;;6.45;;
54745;SDS011;40640;48.130;11.356;2023-09-30T10:45:56;13.73;;;6.55;;
54745;SDS011;40640;48.130;11.356;2023-09-30T10:50:00;15.77;;;8.50;;
54745;SDS011;40640;48.130;11.356;2023-09-30T10:54:03;10.45;;;6.32;;
54745;SDS011;40640;48.130;11.356;2023-09-30T10:58:09;14.60;;;7.40;;
54745;SDS011;40640;48.130;11.356;2023-09-30T11:02:18;13.88;;;7.60;;
54745;SDS011;40640;48.130;11.356;2023-09-30T11:06:22;13.05;;;7.18;;
54745;SDS011;40640;48.130;11.356;2023-09-30T11:10:25;14.40;;;6.68;;
54745;SDS011;40640;48.130;11.356;2023-09-30T11:14:30;9.57;;;5.75;;
54745;SDS011;40640;48.130;11.356;2023-09-30T11:18:34;9.90;;;5.45;;
54745;SDS011;40640;48.130;11.356;2023-09-30T11:22:39;11.30;;;6.07;;
54745;SDS011;40640;48.130;11.356;2023-09-30T11:26:43;12.05;;;5.97;;
54745;SDS011;40640;48.130;11.356;2023-09-30T11:30:57;11.93;;;6.70;;
54745;SDS011;40640;48.130;11.356;2023-09-30T11:35:01;12.25;;;6.18;;
54745;SDS011;40640;48.130;11.356;2023-09-30T11:39:04;14.70;;;6.97;;
54745;SDS011;40640;48.130;11.356;2023-09-30T11:43:10;13.88;;;7.10;;
54745;SDS011;40640;48.130;11.356;2023-09-30T11:47:15;14.38;;;6.72;;
54745;SDS011;40640;48.130;11.356;2023-09-30T11:51:18;12.68;;;6.72;;
54745;SDS011;40640;48.130;11.356;2023-09-30T11:55:21;15.05;;;7.97;;
54745;SDS011;40640;48.130;11.356;2023-09-30T11:59:25;15.05;;;7.15;;
54745;SDS011;40640;48.130;11.356;2023-09-30T12:03:29;12.70;;;7.28;;
54745;SDS011;40640;48.130;11.356;2023-09-30T12:07:33;11.38;;;7.13;;
54745;SDS011;40640;48.130;11.356;2023-09-30T12:11:36;14.68;;;8.45;;
54745;SDS011;40640;48.130;11.356;2023-09-30T12:15:39;12.20;;;7.47;;
54745;SDS011;40640;48.130;11.356;2023-09-30T12:19:44;13.23;;;7.53;;
54745;SDS011;40640;48.130;11.356;2023-09-30T12:23:47;19.55;;;8.82;;
54745;SDS011;40640;48.130;11.356;2023-09-30T12:27:50;17.60;;;8.93;;
54745;SDS011;40640;48.130;11.356;2023-09-30T12:31:56;15.07;;;8.45;;
54745;SDS011;40640;48.130;11.356;2023-09-30T12:36:00;14.70;;;8.93;;
54745;SDS011;40640;48.130;11.356;2023-09-30T12:40:04;18.20;;;8.88;;
54745;SDS011;40640;48.130;11.356;2023-09-30T12:44:09;15.20;;;8.13;;
54745;SDS011;40640;48.130;11.356;2023-09-30T12:48:13;16.25;;;8.45;;
54745;SDS011;40640;48.130;11.356;2023-09-30T12:52:18;15.93;;;8.75;;
54745;SDS011;40640;48.130;11.356;2023-09-30T12:56:21;16.95;;;8.73;;
54745;SDS011;40640;48.130;11.356;2023-09-30T13:00:24;17.48;;;8.77;;
54745;SDS011;40640;48.130;11.356;2023-09-30T13:04:27;16.10;;;9.17;;
54745;SDS011;40640;48.130;11.356;2023-09-30T13:08:31;16.98;;;8.25;;
54745;SDS011;40640;48.130;11.356;2023-09-30T13:12:35;18.45;;;8.68;;
54745;SDS011;40640;48.130;11.356;2023-09-30T13:16:38;17.73;;;8.77;;
54745;SDS011;40640;48.130;11.356;2023-09-30T13:20:41;19.80;;;8.98;;
54745;SDS011;40640;48.130;11.356;2023-09-30T13:24:46;17.63;;;8.55;;
54745;SDS011;40640;48.130;11.356;2023-09-30T13:28:49;16.90;;;8.10;;
54745;SDS011;40640;48.130;11.356;2023-09-30T13:32:52;18.33;;;7.90;;
54745;SDS011;40640;48.130;11.356;2023-09-30T13:36:55;17.30;;;8.23;;
54745;SDS011;40640;48.130;11.356;2023-09-30T13:41:00;20.63;;;8.93;;
54745;SDS011;40640;48.130;11.356;2023-09-30T13:45:04;25.38;;;8.80;;
54745;SDS011;40640;48.130;11.356;2023-09-30T13:49:07;18.20;;;8.15;;
54745;SDS011;40640;48.130;11.356;2023-09-30T13:53:10;17.55;;;8.30;;
54745;SDS011;40640;48.130;11.356;2023-09-30T13:57:15;21.83;;;8.40;;
54745;SDS011;40640;48.130;11.356;2023-09-30T14:01:18;18.13;;;8.32;;
54745;SDS011;40640;48.130;11.356;2023-09-30T14:05:22;17.30;;;7.40;;
54745;SDS011;40640;48.130;11.356;2023-09-30T14:09:25;21.38;;;8.38;;
54745;SDS011;40640;48.130;11.356;2023-09-30T14:13:38;17.50;;;7.95;;
54745;SDS011;40640;48.130;11.356;2023-09-30T14:17:41;17.77;;;7.80;;
54745;SDS011;40640;48.130;11.356;2023-09-30T14:21:46;20.60;;;8.25;;
54745;SDS011;40640;48.130;11.356;2023-09-30T14:25:53;18.27;;;7.55;;
54745;SDS011;40640;48.130;11.356;2023-09-30T14:29:58;20.02;;;8.07;;
54745;SDS011;40640;48.130;11.356;2023-09-30T14:34:02;18.83;;;7.73;;
54745;SDS011;40640;48.130;11.356;2023-09-30T14:38:05;21.05;;;7.68;;
54745;SDS011;40640;48.130;11.356;2023-09-30T14:42:09;21.23;;;7.47;;
54745;SDS011;40640;48.130;11.356;2023-09-30T14:46:14;20.23;;;8.10;;
54745;SDS011;40640;48.130;11.356;2023-09-30T14:50:17;17.77;;;7.80;;
54745;SDS011;40640;48.130;11.356;2023-09-30T14:54:20;18.95;;;8.07;;
54745;SDS011;40640;48.130;11.356;2023-09-30T14:58:24;16.30;;;7.25;;
54745;SDS011;40640;48.130;11.356;2023-09-30T15:02:28;24.48;;;8.35;;
54745;SDS011;40640;48.130;11.356;2023-09-30T15:06:31;17.77;;;7.78;;
54745;SDS011;40640;48.130;11.356;2023-09-30T15:10:35;23.70;;;7.45;;
54745;SDS011;40640;48.130;11.356;2023-09-30T15:14:38;23.88;;;7.55;;
54745;SDS011;40640;48.130;11.356;2023-09-30T15:18:43;18.42;;;7.32;;
54745;SDS011;40640;48.130;11.356;2023-09-30T15:22:47;17.95;;;7.38;;
54745;SDS011;40640;48.130;11.356;2023-09-30T15:26:50;18.70;;;7.43;;
54745;SDS011;40640;48.130;11.356;2023-09-30T15:30:53;20.88;;;7.97;;
54745;SDS011;40640;48.130;11.356;2023-09-30T15:34:57;17.08;;;7.15;;
54745;SDS011;40640;48.130;11.356;2023-09-30T15:39:02;21.48;;;8.05;;
54745;SDS011;40640;48.130;11.356;2023-09-30T15:43:05;21.02;;;8.27;;
54745;SDS011;40640;48.130;11.356;2023-09-30T15:47:08;21.92;;;7.90;;
54745;SDS011;40640;48.130;11.356;2023-09-30T15:51:13;18.58;;;8.48;;
54745;SDS011;40640;48.130;11.356;2023-09-30T15:55:16;22.60;;;8.40;;
54745;SDS011;40640;48.130;11.356;2023-09-30T15:59:19;18.08;;;7.25;;
54745;SDS011;40640;48.130;11.356;2023-09-30T16:03:22;20.30;;;8.23;;
54745;SDS011;40640;48.130;11.356;2023-09-30T16:07:27;21.63;;;8.20;;
54745;SDS011;40640;48.130;11.356;2023-09-30T16:11:30;19.65;;;8.00;;
54745;SDS011;40640;48.130;11.356;2023-09-30T16:15:33;23.38;;;7.93;;
54745;SDS011;40640;48.130;11.356;2023-09-30T16:19:36;24.77;;;8.45;;
54745;SDS011;40640;48.130;11.356;2023-09-30T16:23:41;24.90;;;8.00;;
54745;SDS011;40640;48.130;11.356;2023-09-30T16:27:44;22.20;;;8.68;;
54745;SDS011;40640;48.130;11.356;2023-09-30T16:31:47;22.10;;;9.02;;
54745;SDS011;40640;48.130;11.356;2023-09-30T16:35:50;23.88;;;8.52;;
54745;SDS011;40640;48.130;11.356;2023-09-30T16:39:55;16.98;;;7.50;;
54745;SDS011;40640;48.130;11.356;2023-09-30T16:43:57;19.90;;;8.25;;
54745;SDS011;40640;48.130;11.356;2023-09-30T16:48:00;19.55;;;7.82;;
54745;SDS011;40640;48.130;11.356;2023-09-30T16:52:04;19.02;;;8.15;;
54745;SDS011;40640;48.130;11.356;2023-09-30T16:56:08;27.17;;;8.32;;
54745;SDS011;40640;48.130;11.356;2023-09-30T17:00:12;20.05;;;9.13;;
54745;SDS011;40640;48.130;11.356;2023-09-30T17:04:16;21.33;;;8.05;;
54745;SDS011;40640;48.130;11.356;2023-09-30T17:08:19;20.33;;;8.07;;
54745;SDS011;40640;48.130;11.356;2023-09-30T17:12:23;25.73;;;10.00;;
54745;SDS011;40640;48.130;11.356;2023-09-30T17:16:27;19.27;;;8.50;;
54745;SDS011;40640;48.130;11.356;2023-09-30T17:20:30;19.67;;;8.52;;
54745;SDS011;40640;48.130;11.356;2023-09-30T17:24:34;20.10;;;7.82;;
54745;SDS011;40640;48.130;11.356;2023-09-30T17:28:38;22.85;;;8.50;;
54745;SDS011;40640;48.130;11.356;2023-09-30T17:32:41;31.50;;;8.63;;
54745;SDS011;40640;48.130;11.356;2023-09-30T17:36:44;20.33;;;8.05;;
54745;SDS011;40640;48.130;11.356;2023-09-30T17:40:47;21.23;;;8.40;;
54745;SDS011;40640;48.130;11.356;2023-09-30T17:44:51;22.92;;;8.63;;
54745;SDS011;40640;48.130;11.356;2023-09-30T17:48:56;19.73;;;7.63;;
54745;SDS011;40640;48.130;11.356;2023-09-30T17:52:59;23.80;;;9.07;;
54745;SDS011;40640;48.130;11.356;2023-09-30T17:57:02;27.98;;;9.88;;
54745;SDS011;40640;48.130;11.356;2023-09-30T18:01:06;25.45;;;9.80;;
54745;SDS011;40640;48.130;11.356;2023-09-30T18:05:15;25.00;;;8.88;;
54745;SDS011;40640;48.130;11.356;2023-09-30T18:09:20;23.55;;;9.18;;
54745;SDS011;40640;48.130;11.356;2023-09-30T18:13:23;25.25;;;9.10;;
54745;SDS011;40640;48.130;11.356;2023-09-30T18:17:27;20.45;;;8.30;;
54745;SDS011;40640;48.130;11.356;2023-09-30T18:21:30;25.25;;;8.10;;
54745;SDS011;40640;48.130;11.356;2023-09-30T18:25:33;22.45;;;8.82;;
54745;SDS011;40640;48.130;11.356;2023-09-30T18:29:37;23.83;;;8.50;;
54745;SDS011;40640;48.130;11.356;2023-09-30T18:33:41;19.30;;;9.07;;
54745;SDS011;40640;48.130;11.356;2023-09-30T18:37:44;23.90;;;9.40;;
54745;SDS011;40640;48.130;11.356;2023-09-30T18:41:47;25.50;;;10.20;;
54745;SDS011;40640;48.130;11.356;2023-09-30T18:45:50;29.88;;;11.35;;
54745;SDS011;40640;48.130;11.356;2023-09-30T18:49:54;27.95;;;9.65;;
54745;SDS011;40640;48.130;11.356;2023-09-30T18:53:57;31.25;;;9.30;;
54745;SDS011;40640;48.130;11.356;2023-09-30T18:58:01;25.50;;;8.73;;
54745;SDS011;40640;48.130;11.356;2023-09-30T19:02:03;23.00;;;8.93;;
54745;SDS011;40640;48.130;11.356;2023-09-30T19:06:08;23.20;;;8.93;;
54745;SDS011;40640;48.130;11.356;2023-09-30T19:10:11;23.80;;;9.30;;
54745;SDS011;40640;48.130;11.356;2023-09-30T19:14:14;23.80;;;9.20;;
54745;SDS011;40640;48.130;11.356;2023-09-30T19:18:17;23.20;;;9.90;;
54745;SDS011;40640;48.130;11.356;2023-09-30T19:22:21;23.10;;;9.25;;
54745;SDS011;40640;48.130;11.356;2023-09-30T19:26:25;27.63;;;9.90;;
54745;SDS011;40640;48.130;11.356;2023-09-30T19:30:27;23.00;;;9.10;;
54745;SDS011;40640;48.130;11.356;2023-09-30T19:34:30;22.30;;;9.10;;
54745;SDS011;40640;48.130;11.356;2023-09-30T19:38:35;24.52;;;8.95;;
54745;SDS011;40640;48.130;11.356;2023-09-30T19:42:39;19.60;;;7.97;;
54745;SDS011;40640;48.130;11.356;2023-09-30T19:46:42;21.70;;;9.02;;
54745;SDS011;40640;48.130;11.356;2023-09-30T19:50:45;25.33;;;10.18;;
54745;SDS011;40640;48.130;11.356;2023-09-30T19:54:52;21.45;;;8.82;;
54745;SDS011;40640;48.130;11.356;2023-09-30T19:58:55;22.15;;;8.57;;
54745;SDS011;40640;48.130;11.356;2023-09-30T20:02:58;30.38;;;9.88;;
54745;SDS011;40640;48.130;11.356;2023-09-30T20:07:01;19.60;;;8.70;;
54745;SDS011;40640;48.130;11.356;2023-09-30T20:11:06;27.58;;;9.48;;
54745;SDS011;40640;48.130;11.356;2023-09-30T20:15:09;26.77;;;9.45;;
54745;SDS011;40640;48.130;11.356;2023-09-30T20:19:12;22.05;;;8.23;;
54745;SDS011;40640;48.130;11.356;2023-09-30T20:23:15;21.05;;;8.23;;
54745;SDS011;40640;48.130;11.356;2023-09-30T20:27:20;26.55;;;9.60;;
54745;SDS011;40640;48.130;11.356;2023-09-30T20:31:23;22.27;;;8.48;;
54745;SDS011;40640;48.130;11.356;2023-09-30T20:35:26;23.73;;;9.13;;
54745;SDS011;40640;48.130;11.356;2023-09-30T20:39:30;26.88;;;9.07;;
54745;SDS011;40640;48.130;11.356;2023-09-30T20:43:35;21.73;;;8.40;;
54745;SDS011;40640;48.130;11.356;2023-09-30T20:47:38;18.92;;;8.02;;
54745;SDS011;40640;48.130;11.356;2023-09-30T20:51:41;23.33;;;9.05;;
54745;SDS011;40640;48.130;11.356;2023-09-30T20:55:44;23.67;;;8.32;;
54745;SDS011;40640;48.130;11.356;2023-09-30T20:59:48;22.63;;;7.78;;
54745;SDS011;40640;48.130;11.356;2023-09-30T21:03:51;23.55;;;8.77;;
54745;SDS011;40640;48.130;11.356;2023-09-30T21:07:55;22.52;;;8.57;;
54745;SDS011;40640;48.130;11.356;2023-09-30T21:11:58;23.75;;;9.02;;
54745;SDS011;40640;48.130;11.356;2023-09-30T21:16:02;20.83;;;7.85;;
54745;SDS011;40640;48.130;11.356;2023-09-30T21:20:06;25.17;;;9.45;;
54745;SDS011;40640;48.130;11.356;2023-09-30T21:24:09;23.17;;;9.25;;
54745;SDS011;40640;48.130;11.356;2023-09-30T21:28:12;22.25;;;8.88;;
54745;SDS011;40640;48.130;11.356;2023-09-30T21:32:18;26.05;;;10.02;;
54745;SDS011;40640;48.130;11.356;2023-09-30T21:36:21;22.40;;;8.30;;
54745;SDS011;40640;48.130;11.356;2023-09-30T21:40:24;28.42;;;9.25;;
54745;SDS011;40640;48.130;11.356;2023-09-30T21:44:27;22.45;;;7.93;;
54745;SDS011;40640;48.130;11.356;2023-09-30T21:48:32;22.38;;;8.45;;
54745;SDS011;40640;48.130;11.356;2023-09-30T21:52:35;25.75;;;8.60;;
54745;SDS011;40640;48.130;11.356;2023-09-30T21:56:39;23.60;;;8.50;;
54745;SDS011;40640;48.130;11.356;2023-09-30T22:00:43;25.17;;;8.10;;
54745;SDS011;40640;48.130;11.356;2023-09-30T22:04:50;25.95;;;9.23;;
54745;SDS011;40640;48.130;11.356;2023-09-30T22:08:53;22.42;;;8.75;;
54745;SDS011;40640;48.130;11.356;2023-09-30T22:12:57;23.70;;;9.00;;
54745;SDS011;40640;48.130;11.356;2023-09-30T22:17:00;23.75;;;8.57;;
54745;SDS011;40640;48.130;11.356;2023-09-30T22:21:05;19.23;;;8.02;;
54745;SDS011;40640;48.130;11.356;2023-09-30T22:25:08;25.98;;;8.85;;
54745;SDS011;40640;48.130;11.356;2023-09-30T22:29:12;26.55;;;9.98;;
54745;SDS011;40640;48.130;11.356;2023-09-30T22:33:14;21.80;;;8.77;;
54745;SDS011;40640;48.130;11.356;2023-09-30T22:37:19;22.33;;;8.57;;
54745;SDS011;40640;48.130;11.356;2023-09-30T22:41:22;24.73;;;8.50;;
54745;SDS011;40640;48.130;11.356;2023-09-30T22:45:25;25.63;;;8.35;;
54745;SDS011;40640;48.130;11.356;2023-09-30T22:49:28;21.25;;;8.30;;
54745;SDS011;40640;48.130;11.356;2023-09-30T22:53:33;22.55;;;8.63;;
54745;SDS011;40640;48.130;11.356;2023-09-30T22:57:36;27.75;;;9.23;;
54745;SDS011;40640;48.130;11.356;2023-09-30T23:01:39;24.95;;;8.52;;
54745;SDS011;40640;48.130;11.356;2023-09-30T23:05:42;26.45;;;9.32;;
54745;SDS011;40640;48.130;11.356;2023-09-30T23:09:46;22.65;;;9.30;;
54745;SDS011;40640;48.130;11.356;2023-09-30T23:13:49;23.15;;;8.90;;
54745;SDS011;40640;48.130;11.356;2023-09-30T23:17:55;23.25;;;8.80;;
54745;SDS011;40640;48.130;11.356;2023-09-30T23:21:58;26.27;;;9.73;;
54745;SDS011;40640;48.130;11.356;2023-09-30T23:26:03;15.70;;;7.68;;
54745;SDS011;40640;48.130;11.356;2023-09-30T23:30:10;19.50;;;8.80;;
54745;SDS011;40640;48.130;11.356;2023-09-30T23:34:16;21.98;;;8.45;;
54745;SDS011;40640;48.130;11.356;2023-09-30T23:38:19;24.17;;;8.60;;
54745;SDS011;40640;48.130;11.356;2023-09-30T23:42:24;22.60;;;8.93;;
54745;SDS011;40640;48.130;11.356;2023-09-30T23:46:27;22.35;;;8.70;;
54745;SDS011;40640;48.130;11.356;2023-09-30T23:50:31;24.27;;;8.60;;
54745;SDS011;40640;48.130;11.356;2023-09-30T23:54:35;21.13;;;8.77;;
54745;SDS011;40640;48.130;11.356;2023-09-30T23:58:40;24.73;;;8.48;;
